EETN

Tallinn Airport

Tallinn, Estonia
METAR EETN 151650Z 11008KT 9999 OVC018 M03/M06 Q1036 R08/19//95 NOSIG
Observed Flight Rules
Dec-15 @ 16:50 UTC (13 minutes ago) Marginal Visual Flight Rules
Wind Visibility Clouds
110° at 8 knots 10,000+ meters
  • Overcast at 1,800' AGL
Temperatures Readings
Current -3°C / 27°F
Dewpoint -6°C / 21°F
Humidity 80%
Altimeter 30.59" Hg
Pressure 1036 hPa
Elevation 40
METAR EETN 151650Z 11008KT 9999 OVC018 M03/M06 Q1036 R08/19//95 NOSIG
Observed Flight Rules
Dec-15 @ 16:50 UTC
(13 minutes ago)
MVFR
Wind Visibility
110° at 8 knots 10,000+ meters
Clouds
  • Overcast at 1,800' AGL
Temperature Dewpoint
-3°C / 27°F -6°C / 21°F
Humidity Altimeter Pressure
80% 30.59" Hg 1036 hPa